• Join FlightAware (Why Join?)
  • Login
  • US Flag GB Flag 
10:54 EST


 

Airport Tracker/Info


-or-


 

Live Flight TrackerFlight Track Log ✈ KAP46 ✈ 23-Jun-2013 ✈ KALB - KMSS

Flight Track Log - Related Links

Times and Time Zones

All times are in EDT time to prevent confusion due to time zone crossing. See the KAP46 flight status page for this flight to view local times or setup timezone preferences in your user account.

Time Position Orientation Groundspeed Altitude Reporting Facility
EDT Latitude Longitude Course Direction KTS MPH feet Rate Location/Type
19:38 42.7742 -73.7611 28° Northeast 125 144 1,600  Level Boston Center
19:39 42.8053 -73.7731 344° North 118 136 2,400 720 Climbing Boston Center
19:40 42.8342 -73.7878 340° North 125 144 3,000 660 Climbing Boston Center
19:41 42.8675 -73.8056 339° North 133 153 3,700 540 Climbing Boston Center
19:42 42.9089 -73.8233 343° North 140 161 4,200 480 Climbing Boston Center
19:43 42.9483 -73.8414 341° North 147 169 4,700 480 Climbing Boston Center
19:44 42.9875 -73.8622 339° North 154 177 5,200 480 Climbing Boston Center
19:45 43.0269 -73.8800 342° North 153 176 5,700 420 Climbing Boston Center
19:46 43.0664 -73.9008 339° North 154 177 6,100 360 Climbing Boston Center
19:47 43.1056 -73.9217 339° North 157 181 6,500 420 Climbing Boston Center
19:48 43.1700 -73.9489 343° North 171 197 7,200 420 Climbing Boston Center
19:49 43.2031 -73.9667 339° North 157 181 7,600 360 Climbing Boston Center
19:50 43.2464 -73.9878 340° North 151 174 8,000 180 Climbing Boston Center
19:51 43.2858 -74.0058 342° North 151 174 8,000  Level Boston Center
19:52 43.3333 -74.0300 340° North 156 180 8,000  Level Boston Center
19:53 43.3706 -74.0481 341° North 161 185 8,000  Level Boston Center
19:54 43.4203 -74.0694 343° North 161 185 8,000  Level Boston Center
19:55 43.4617 -74.0933 337° Northwest 161 185 8,000  Level Boston Center
19:56 43.4969 -74.1117 339° North 161 185 8,000  Level Boston Center
19:57 43.5486 -74.1358 341° North 166 191 8,000  Level Boston Center
19:58 43.5919 -74.1600 338° Northwest 166 191 8,000  Level Boston Center
19:59 43.6356 -74.1814 340° North 166 191 8,000  Level Boston Center
20:00 43.6789 -74.2028 340° North 166 191 8,000  Level Boston Center
20:01 43.7203 -74.2211 342° North 161 185 8,000  Level Boston Center
20:02 43.7617 -74.2425 340° North 161 185 8,000  Level Boston Center
20:03 43.8072 -74.2642 341° North 161 185 8,000  Level Boston Center
20:04 43.8506 -74.2883 338° Northwest 161 185 8,000  Level Boston Center
20:05 43.8919 -74.3069 342° North 166 191 8,000 -60 Level Boston Center
20:06 43.9333 -74.3283 340° North 166 191 7,900 -60 Descending Boston Center
20:07 43.9744 -74.3500 339° North 161 185 7,900  Level Boston Center
20:08 44.0181 -74.3686 343° North 161 185 7,900  Level Boston Center
20:09 44.0614 -74.3961 335° Northwest 161 185 7,900  Level Boston Center
20:10 44.1028 -74.4147 342° North 161 185 7,900  Level Boston Center
20:11 44.1461 -74.4364 340° North 161 185 7,900  Level Boston Center
20:12 44.1875 -74.4581 339° North 161 185 7,900  Level Boston Center
20:13 44.2328 -74.4800 341° North 166 191 7,900  Level Boston Center
20:14 44.2742 -74.4986 342° North 166 191 7,900 -120 Level Boston Center
20:15 44.3194 -74.5264 336° Northwest 166 191 7,700 -360 Descending Boston Center
20:16 44.3753 -74.5486 344° North 166 191 7,200 -540 Descending Boston Center
20:17 44.4228 -74.5767 337° Northwest 166 191 6,700 -540 Descending Boston Center
20:18 44.4703 -74.6017 339° North 172 198 6,200 -480 Descending Boston Center
20:19 44.5178 -74.6267 339° North 172 198 5,800 -480 Descending Boston Center
20:20 44.5672 -74.6489 342° North 172 198 5,300 -600 Descending Boston Center
20:21 44.6147 -74.6739 339° North 172 198 4,700 -600 Descending Boston Center